sensor_id;sensor_type;location;lat;lon;timestamp;temperature;humidity
74294;DHT22;64044;59.904;10.738;2023-07-29T00:01:51;19.60;62.50
74294;DHT22;64044;59.904;10.738;2023-07-29T00:04:19;19.60;62.60
74294;DHT22;64044;59.904;10.738;2023-07-29T00:06:45;19.60;62.80
74294;DHT22;64044;59.904;10.738;2023-07-29T00:09:11;19.60;62.90
74294;DHT22;64044;59.904;10.738;2023-07-29T00:11:37;19.60;63.00
74294;DHT22;64044;59.904;10.738;2023-07-29T00:14:03;19.60;63.10
74294;DHT22;64044;59.904;10.738;2023-07-29T00:16:29;19.60;63.20
74294;DHT22;64044;59.904;10.738;2023-07-29T00:18:55;19.60;63.10
74294;DHT22;64044;59.904;10.738;2023-07-29T00:21:20;19.60;63.30
74294;DHT22;64044;59.904;10.738;2023-07-29T00:23:46;19.60;63.40
74294;DHT22;64044;59.904;10.738;2023-07-29T00:26:11;19.50;63.40
74294;DHT22;64044;59.904;10.738;2023-07-29T00:28:37;19.60;63.60
74294;DHT22;64044;59.904;10.738;2023-07-29T00:31:03;19.50;63.60
74294;DHT22;64044;59.904;10.738;2023-07-29T00:33:28;19.50;63.70
74294;DHT22;64044;59.904;10.738;2023-07-29T00:35:54;19.50;63.80
74294;DHT22;64044;59.904;10.738;2023-07-29T00:38:20;19.40;63.80
74294;DHT22;64044;59.904;10.738;2023-07-29T00:40:45;19.40;63.80
74294;DHT22;64044;59.904;10.738;2023-07-29T00:43:11;19.40;63.80
74294;DHT22;64044;59.904;10.738;2023-07-29T00:45:37;19.40;64.00
74294;DHT22;64044;59.904;10.738;2023-07-29T00:48:04;19.40;64.10
74294;DHT22;64044;59.904;10.738;2023-07-29T00:50:31;19.40;64.10
74294;DHT22;64044;59.904;10.738;2023-07-29T00:52:57;19.40;64.40
74294;DHT22;64044;59.904;10.738;2023-07-29T00:55:23;19.40;64.40
74294;DHT22;64044;59.904;10.738;2023-07-29T00:57:50;19.40;64.60
74294;DHT22;64044;59.904;10.738;2023-07-29T01:00:18;19.30;64.70
74294;DHT22;64044;59.904;10.738;2023-07-29T01:02:44;19.30;64.60
74294;DHT22;64044;59.904;10.738;2023-07-29T01:05:13;19.30;64.70
74294;DHT22;64044;59.904;10.738;2023-07-29T01:10:46;19.30;65.40
74294;DHT22;64044;59.904;10.738;2023-07-29T01:16:03;19.40;65.40
74294;DHT22;64044;59.904;10.738;2023-07-29T01:18:32;19.30;64.30
74294;DHT22;64044;59.904;10.738;2023-07-29T01:21:08;19.30;64.40
74294;DHT22;64044;59.904;10.738;2023-07-29T01:23:35;19.30;64.70
74294;DHT22;64044;59.904;10.738;2023-07-29T01:26:02;19.30;65.50
74294;DHT22;64044;59.904;10.738;2023-07-29T01:28:29;19.30;64.90
74294;DHT22;64044;59.904;10.738;2023-07-29T01:31:18;19.30;64.90
74294;DHT22;64044;59.904;10.738;2023-07-29T01:34:26;19.30;66.00
74294;DHT22;64044;59.904;10.738;2023-07-29T01:36:45;19.30;65.20
74294;DHT22;64044;59.904;10.738;2023-07-29T01:39:11;19.30;64.90
74294;DHT22;64044;59.904;10.738;2023-07-29T01:41:38;19.30;64.90
74294;DHT22;64044;59.904;10.738;2023-07-29T01:44:05;19.30;64.70
74294;DHT22;64044;59.904;10.738;2023-07-29T01:46:33;19.40;64.90
74294;DHT22;64044;59.904;10.738;2023-07-29T01:48:59;19.30;64.90
74294;DHT22;64044;59.904;10.738;2023-07-29T01:51:25;19.30;64.80
74294;DHT22;64044;59.904;10.738;2023-07-29T01:53:50;19.30;64.90
74294;DHT22;64044;59.904;10.738;2023-07-29T01:56:16;19.30;65.00
74294;DHT22;64044;59.904;10.738;2023-07-29T01:58:42;19.30;65.00
74294;DHT22;64044;59.904;10.738;2023-07-29T02:01:07;19.30;65.00
74294;DHT22;64044;59.904;10.738;2023-07-29T02:03:33;19.30;65.00
74294;DHT22;64044;59.904;10.738;2023-07-29T02:05:59;19.30;65.00
74294;DHT22;64044;59.904;10.738;2023-07-29T02:08:24;19.30;64.90
74294;DHT22;64044;59.904;10.738;2023-07-29T02:10:50;19.30;64.90
74294;DHT22;64044;59.904;10.738;2023-07-29T02:13:16;19.30;64.90
74294;DHT22;64044;59.904;10.738;2023-07-29T02:15:41;19.30;64.90
74294;DHT22;64044;59.904;10.738;2023-07-29T02:18:07;19.30;64.90
74294;DHT22;64044;59.904;10.738;2023-07-29T02:20:33;19.30;64.90
74294;DHT22;64044;59.904;10.738;2023-07-29T02:22:59;19.30;64.90
74294;DHT22;64044;59.904;10.738;2023-07-29T02:25:24;19.30;64.90
74294;DHT22;64044;59.904;10.738;2023-07-29T02:27:50;19.40;65.70
74294;DHT22;64044;59.904;10.738;2023-07-29T02:30:16;19.30;64.70
74294;DHT22;64044;59.904;10.738;2023-07-29T02:32:41;19.40;64.80
74294;DHT22;64044;59.904;10.738;2023-07-29T02:35:07;19.40;64.80
74294;DHT22;64044;59.904;10.738;2023-07-29T02:37:33;19.40;64.70
74294;DHT22;64044;59.904;10.738;2023-07-29T02:39:59;19.40;64.80
74294;DHT22;64044;59.904;10.738;2023-07-29T02:42:25;19.40;64.70
74294;DHT22;64044;59.904;10.738;2023-07-29T02:44:51;19.40;64.70
74294;DHT22;64044;59.904;10.738;2023-07-29T02:47:17;19.40;64.70
74294;DHT22;64044;59.904;10.738;2023-07-29T02:49:42;19.40;64.70
74294;DHT22;64044;59.904;10.738;2023-07-29T02:52:08;19.40;64.70
74294;DHT22;64044;59.904;10.738;2023-07-29T02:54:34;19.40;64.70
74294;DHT22;64044;59.904;10.738;2023-07-29T02:56:59;19.40;64.70
74294;DHT22;64044;59.904;10.738;2023-07-29T02:59:26;19.40;64.80
74294;DHT22;64044;59.904;10.738;2023-07-29T03:01:52;19.40;64.70
74294;DHT22;64044;59.904;10.738;2023-07-29T03:04:18;19.40;64.70
74294;DHT22;64044;59.904;10.738;2023-07-29T03:06:44;19.40;64.70
74294;DHT22;64044;59.904;10.738;2023-07-29T03:09:10;19.40;64.70
74294;DHT22;64044;59.904;10.738;2023-07-29T03:11:35;19.50;64.70
74294;DHT22;64044;59.904;10.738;2023-07-29T03:14:01;19.50;64.60
74294;DHT22;64044;59.904;10.738;2023-07-29T03:16:27;19.50;64.50
74294;DHT22;64044;59.904;10.738;2023-07-29T03:18:53;19.50;64.40
74294;DHT22;64044;59.904;10.738;2023-07-29T03:21:18;19.50;64.40
74294;DHT22;64044;59.904;10.738;2023-07-29T03:23:44;19.50;64.30
74294;DHT22;64044;59.904;10.738;2023-07-29T03:26:10;19.50;64.20
74294;DHT22;64044;59.904;10.738;2023-07-29T03:28:40;19.50;64.20
74294;DHT22;64044;59.904;10.738;2023-07-29T03:31:06;19.60;64.20
74294;DHT22;64044;59.904;10.738;2023-07-29T03:33:32;19.60;64.10
74294;DHT22;64044;59.904;10.738;2023-07-29T03:35:58;19.60;64.20
74294;DHT22;64044;59.904;10.738;2023-07-29T03:38:24;19.60;64.20
74294;DHT22;64044;59.904;10.738;2023-07-29T03:40:50;19.70;64.30
74294;DHT22;64044;59.904;10.738;2023-07-29T03:43:16;19.60;64.10
74294;DHT22;64044;59.904;10.738;2023-07-29T03:45:42;19.70;64.20
74294;DHT22;64044;59.904;10.738;2023-07-29T03:48:07;19.70;64.10
74294;DHT22;64044;59.904;10.738;2023-07-29T03:50:35;19.70;64.00
74294;DHT22;64044;59.904;10.738;2023-07-29T03:53:01;19.70;64.10
74294;DHT22;64044;59.904;10.738;2023-07-29T03:55:27;19.70;64.00
74294;DHT22;64044;59.904;10.738;2023-07-29T03:57:58;19.70;63.90
74294;DHT22;64044;59.904;10.738;2023-07-29T04:00:24;19.80;63.90
74294;DHT22;64044;59.904;10.738;2023-07-29T04:02:50;19.80;63.70
74294;DHT22;64044;59.904;10.738;2023-07-29T04:05:16;19.80;63.70
74294;DHT22;64044;59.904;10.738;2023-07-29T04:07:42;19.80;63.60
74294;DHT22;64044;59.904;10.738;2023-07-29T04:10:08;19.80;63.60
74294;DHT22;64044;59.904;10.738;2023-07-29T04:12:34;19.80;63.50
74294;DHT22;64044;59.904;10.738;2023-07-29T04:15:00;19.80;63.40
74294;DHT22;64044;59.904;10.738;2023-07-29T04:17:25;19.80;63.30
74294;DHT22;64044;59.904;10.738;2023-07-29T04:19:51;19.80;63.30
74294;DHT22;64044;59.904;10.738;2023-07-29T04:22:17;19.80;63.30
74294;DHT22;64044;59.904;10.738;2023-07-29T04:24:42;19.80;63.30
74294;DHT22;64044;59.904;10.738;2023-07-29T04:27:08;19.80;63.20
74294;DHT22;64044;59.904;10.738;2023-07-29T04:29:34;19.80;63.20
74294;DHT22;64044;59.904;10.738;2023-07-29T04:32:01;19.80;63.10
74294;DHT22;64044;59.904;10.738;2023-07-29T04:34:27;19.80;63.10
74294;DHT22;64044;59.904;10.738;2023-07-29T04:36:53;19.80;63.00
74294;DHT22;64044;59.904;10.738;2023-07-29T04:39:18;19.80;63.00
74294;DHT22;64044;59.904;10.738;2023-07-29T04:41:44;19.80;63.00
74294;DHT22;64044;59.904;10.738;2023-07-29T04:44:10;19.80;63.00
74294;DHT22;64044;59.904;10.738;2023-07-29T04:46:36;19.80;62.90
74294;DHT22;64044;59.904;10.738;2023-07-29T04:49:02;19.80;63.00
74294;DHT22;64044;59.904;10.738;2023-07-29T04:51:28;19.80;63.10
74294;DHT22;64044;59.904;10.738;2023-07-29T04:53:54;19.80;63.10
74294;DHT22;64044;59.904;10.738;2023-07-29T04:56:19;19.80;63.00
74294;DHT22;64044;59.904;10.738;2023-07-29T04:58:45;19.80;62.90
74294;DHT22;64044;59.904;10.738;2023-07-29T05:01:11;19.90;62.90
74294;DHT22;64044;59.904;10.738;2023-07-29T05:03:36;19.90;62.90
74294;DHT22;64044;59.904;10.738;2023-07-29T05:06:03;19.90;62.80
74294;DHT22;64044;59.904;10.738;2023-07-29T05:08:29;19.90;62.70
74294;DHT22;64044;59.904;10.738;2023-07-29T05:10:55;20.00;62.80
74294;DHT22;64044;59.904;10.738;2023-07-29T05:13:22;20.00;62.60
74294;DHT22;64044;59.904;10.738;2023-07-29T05:15:48;20.00;62.60
74294;DHT22;64044;59.904;10.738;2023-07-29T05:18:39;20.10;62.50
74294;DHT22;64044;59.904;10.738;2023-07-29T05:21:05;20.10;62.20
74294;DHT22;64044;59.904;10.738;2023-07-29T05:23:31;20.10;62.00
74294;DHT22;64044;59.904;10.738;2023-07-29T05:25:56;20.10;62.00
74294;DHT22;64044;59.904;10.738;2023-07-29T05:28:22;20.10;62.00
74294;DHT22;64044;59.904;10.738;2023-07-29T05:30:48;20.10;61.90
74294;DHT22;64044;59.904;10.738;2023-07-29T05:33:13;20.20;61.90
74294;DHT22;64044;59.904;10.738;2023-07-29T05:35:39;20.20;61.70
74294;DHT22;64044;59.904;10.738;2023-07-29T05:38:05;20.20;61.60
74294;DHT22;64044;59.904;10.738;2023-07-29T05:40:32;20.20;61.40
74294;DHT22;64044;59.904;10.738;2023-07-29T05:42:57;20.20;61.20
74294;DHT22;64044;59.904;10.738;2023-07-29T05:45:23;20.20;61.10
74294;DHT22;64044;59.904;10.738;2023-07-29T05:47:49;20.20;61.00
74294;DHT22;64044;59.904;10.738;2023-07-29T05:50:15;20.30;61.00
74294;DHT22;64044;59.904;10.738;2023-07-29T05:52:43;20.30;60.90
74294;DHT22;64044;59.904;10.738;2023-07-29T05:55:09;20.30;60.80
74294;DHT22;64044;59.904;10.738;2023-07-29T05:57:35;20.30;60.80
74294;DHT22;64044;59.904;10.738;2023-07-29T06:00:00;20.30;60.70
74294;DHT22;64044;59.904;10.738;2023-07-29T06:02:26;20.40;60.60
74294;DHT22;64044;59.904;10.738;2023-07-29T06:04:52;20.40;60.50
74294;DHT22;64044;59.904;10.738;2023-07-29T06:07:17;20.40;60.40
74294;DHT22;64044;59.904;10.738;2023-07-29T06:09:43;20.40;60.30
74294;DHT22;64044;59.904;10.738;2023-07-29T06:12:09;20.40;60.20
74294;DHT22;64044;59.904;10.738;2023-07-29T06:14:35;20.40;60.00
74294;DHT22;64044;59.904;10.738;2023-07-29T06:17:00;20.40;60.10
74294;DHT22;64044;59.904;10.738;2023-07-29T06:19:26;20.40;60.00
74294;DHT22;64044;59.904;10.738;2023-07-29T06:21:55;20.40;60.00
74294;DHT22;64044;59.904;10.738;2023-07-29T06:24:21;20.40;60.10
74294;DHT22;64044;59.904;10.738;2023-07-29T06:26:46;20.50;60.10
74294;DHT22;64044;59.904;10.738;2023-07-29T06:29:12;20.60;60.00
74294;DHT22;64044;59.904;10.738;2023-07-29T06:31:38;20.60;59.70
74294;DHT22;64044;59.904;10.738;2023-07-29T06:34:03;20.80;59.60
74294;DHT22;64044;59.904;10.738;2023-07-29T06:36:29;20.80;59.30
74294;DHT22;64044;59.904;10.738;2023-07-29T06:38:54;20.90;59.10
74294;DHT22;64044;59.904;10.738;2023-07-29T06:41:20;20.90;58.70
74294;DHT22;64044;59.904;10.738;2023-07-29T06:43:46;21.00;58.50
74294;DHT22;64044;59.904;10.738;2023-07-29T06:46:12;21.10;58.30
74294;DHT22;64044;59.904;10.738;2023-07-29T06:48:37;21.10;58.20
74294;DHT22;64044;59.904;10.738;2023-07-29T06:51:03;21.20;57.90
74294;DHT22;64044;59.904;10.738;2023-07-29T06:53:29;21.20;57.80
74294;DHT22;64044;59.904;10.738;2023-07-29T06:55:54;21.30;57.70
74294;DHT22;64044;59.904;10.738;2023-07-29T06:58:21;21.30;57.40
74294;DHT22;64044;59.904;10.738;2023-07-29T07:00:47;21.30;58.00
74294;DHT22;64044;59.904;10.738;2023-07-29T07:03:13;21.40;57.10
74294;DHT22;64044;59.904;10.738;2023-07-29T07:05:38;21.40;56.90
74294;DHT22;64044;59.904;10.738;2023-07-29T07:08:04;21.40;56.90
74294;DHT22;64044;59.904;10.738;2023-07-29T07:10:30;21.30;57.40
74294;DHT22;64044;59.904;10.738;2023-07-29T07:12:56;21.30;56.80
74294;DHT22;64044;59.904;10.738;2023-07-29T07:15:21;21.30;56.60
74294;DHT22;64044;59.904;10.738;2023-07-29T07:17:47;21.30;56.60
74294;DHT22;64044;59.904;10.738;2023-07-29T07:20:13;21.20;57.10
74294;DHT22;64044;59.904;10.738;2023-07-29T07:22:38;21.20;56.70
74294;DHT22;64044;59.904;10.738;2023-07-29T07:25:04;21.10;56.90
74294;DHT22;64044;59.904;10.738;2023-07-29T07:27:30;21.10;57.10
74294;DHT22;64044;59.904;10.738;2023-07-29T07:29:56;21.00;57.00
74294;DHT22;64044;59.904;10.738;2023-07-29T07:32:22;21.00;57.20
74294;DHT22;64044;59.904;10.738;2023-07-29T07:34:47;20.90;57.10
74294;DHT22;64044;59.904;10.738;2023-07-29T07:37:13;20.90;57.20
74294;DHT22;64044;59.904;10.738;2023-07-29T07:39:39;20.90;57.20
74294;DHT22;64044;59.904;10.738;2023-07-29T07:42:05;21.00;57.30
74294;DHT22;64044;59.904;10.738;2023-07-29T07:44:30;20.90;57.40
74294;DHT22;64044;59.904;10.738;2023-07-29T07:46:56;20.90;57.50
74294;DHT22;64044;59.904;10.738;2023-07-29T07:49:22;20.90;57.40
74294;DHT22;64044;59.904;10.738;2023-07-29T07:51:48;21.00;57.50
74294;DHT22;64044;59.904;10.738;2023-07-29T07:54:14;21.00;57.60
74294;DHT22;64044;59.904;10.738;2023-07-29T07:56:39;21.10;58.20
74294;DHT22;64044;59.904;10.738;2023-07-29T07:59:05;21.10;57.40
74294;DHT22;64044;59.904;10.738;2023-07-29T08:01:40;21.20;57.30
74294;DHT22;64044;59.904;10.738;2023-07-29T08:04:06;21.20;57.20
74294;DHT22;64044;59.904;10.738;2023-07-29T08:06:32;21.20;57.20
74294;DHT22;64044;59.904;10.738;2023-07-29T08:08:58;21.20;57.20
74294;DHT22;64044;59.904;10.738;2023-07-29T08:11:26;21.20;57.40
74294;DHT22;64044;59.904;10.738;2023-07-29T08:13:51;21.30;57.20
74294;DHT22;64044;59.904;10.738;2023-07-29T08:16:17;21.30;57.10
74294;DHT22;64044;59.904;10.738;2023-07-29T08:18:43;21.30;57.10
74294;DHT22;64044;59.904;10.738;2023-07-29T08:21:09;21.40;57.00
74294;DHT22;64044;59.904;10.738;2023-07-29T08:23:35;21.40;57.50
74294;DHT22;64044;59.904;10.738;2023-07-29T08:26:05;21.40;56.80
74294;DHT22;64044;59.904;10.738;2023-07-29T08:28:32;21.30;57.00
74294;DHT22;64044;59.904;10.738;2023-07-29T08:31:00;21.30;57.00
74294;DHT22;64044;59.904;10.738;2023-07-29T08:33:26;21.30;57.20
74294;DHT22;64044;59.904;10.738;2023-07-29T08:35:52;21.20;57.20
74294;DHT22;64044;59.904;10.738;2023-07-29T08:38:18;21.20;57.50
74294;DHT22;64044;59.904;10.738;2023-07-29T08:43:30;21.10;58.20
74294;DHT22;64044;59.904;10.738;2023-07-29T08:45:58;21.10;58.10
74294;DHT22;64044;59.904;10.738;2023-07-29T08:50:56;21.10;58.30
74294;DHT22;64044;59.904;10.738;2023-07-29T08:53:22;21.20;58.40
74294;DHT22;64044;59.904;10.738;2023-07-29T08:55:49;21.20;58.50
74294;DHT22;64044;59.904;10.738;2023-07-29T08:58:15;21.30;58.70
74294;DHT22;64044;59.904;10.738;2023-07-29T09:00:41;21.30;58.80
74294;DHT22;64044;59.904;10.738;2023-07-29T09:03:07;21.40;58.50
74294;DHT22;64044;59.904;10.738;2023-07-29T09:05:34;21.40;58.40
74294;DHT22;64044;59.904;10.738;2023-07-29T09:08:02;21.50;58.30
74294;DHT22;64044;59.904;10.738;2023-07-29T09:10:28;21.60;58.40
74294;DHT22;64044;59.904;10.738;2023-07-29T09:12:54;21.60;58.80
74294;DHT22;64044;59.904;10.738;2023-07-29T09:15:28;21.70;58.00
74294;DHT22;64044;59.904;10.738;2023-07-29T09:17:58;21.80;57.90
74294;DHT22;64044;59.904;10.738;2023-07-29T09:20:27;21.90;57.90
74294;DHT22;64044;59.904;10.738;2023-07-29T09:22:55;22.00;57.60
74294;DHT22;64044;59.904;10.738;2023-07-29T09:25:25;22.10;58.00
74294;DHT22;64044;59.904;10.738;2023-07-29T09:27:51;22.10;57.30
74294;DHT22;64044;59.904;10.738;2023-07-29T09:30:17;22.20;57.20
74294;DHT22;64044;59.904;10.738;2023-07-29T09:32:42;22.30;57.20
74294;DHT22;64044;59.904;10.738;2023-07-29T09:35:12;22.30;56.90
74294;DHT22;64044;59.904;10.738;2023-07-29T09:37:38;22.40;56.80
74294;DHT22;64044;59.904;10.738;2023-07-29T09:40:06;22.40;57.50
74294;DHT22;64044;59.904;10.738;2023-07-29T09:42:32;22.60;56.80
74294;DHT22;64044;59.904;10.738;2023-07-29T09:44:58;22.60;56.70
74294;DHT22;64044;59.904;10.738;2023-07-29T09:47:25;22.60;56.40
74294;DHT22;64044;59.904;10.738;2023-07-29T09:49:52;22.70;56.10
74294;DHT22;64044;59.904;10.738;2023-07-29T09:52:22;22.80;55.90
74294;DHT22;64044;59.904;10.738;2023-07-29T09:54:48;22.80;55.50
74294;DHT22;64044;59.904;10.738;2023-07-29T09:57:16;22.80;55.50
74294;DHT22;64044;59.904;10.738;2023-07-29T09:59:43;22.80;55.20
74294;DHT22;64044;59.904;10.738;2023-07-29T10:02:13;22.80;55.20
74294;DHT22;64044;59.904;10.738;2023-07-29T10:04:44;22.80;55.10
74294;DHT22;64044;59.904;10.738;2023-07-29T10:07:11;22.90;55.30
74294;DHT22;64044;59.904;10.738;2023-07-29T10:09:40;22.90;55.70
74294;DHT22;64044;59.904;10.738;2023-07-29T10:12:06;22.90;55.80
74294;DHT22;64044;59.904;10.738;2023-07-29T10:14:33;23.00;55.70
74294;DHT22;64044;59.904;10.738;2023-07-29T10:17:00;22.90;55.70
74294;DHT22;64044;59.904;10.738;2023-07-29T10:19:25;23.00;55.50
74294;DHT22;64044;59.904;10.738;2023-07-29T10:21:52;22.90;55.60
74294;DHT22;64044;59.904;10.738;2023-07-29T10:24:25;23.00;55.90
74294;DHT22;64044;59.904;10.738;2023-07-29T10:26:58;23.10;55.50
74294;DHT22;64044;59.904;10.738;2023-07-29T10:29:24;23.00;55.40
74294;DHT22;64044;59.904;10.738;2023-07-29T10:31:54;23.10;55.30
74294;DHT22;64044;59.904;10.738;2023-07-29T10:34:23;23.10;55.70
74294;DHT22;64044;59.904;10.738;2023-07-29T10:36:50;23.20;55.40
74294;DHT22;64044;59.904;10.738;2023-07-29T10:39:17;23.10;55.40
74294;DHT22;64044;59.904;10.738;2023-07-29T10:42:02;23.20;55.40
74294;DHT22;64044;59.904;10.738;2023-07-29T10:44:50;23.20;55.60
74294;DHT22;64044;59.904;10.738;2023-07-29T10:47:17;23.20;55.00
74294;DHT22;64044;59.904;10.738;2023-07-29T10:49:44;23.20;55.20
74294;DHT22;64044;59.904;10.738;2023-07-29T10:52:14;23.20;55.10
74294;DHT22;64044;59.904;10.738;2023-07-29T10:54:47;23.20;55.10
74294;DHT22;64044;59.904;10.738;2023-07-29T10:57:14;23.30;55.20
74294;DHT22;64044;59.904;10.738;2023-07-29T10:59:41;23.30;55.30
74294;DHT22;64044;59.904;10.738;2023-07-29T11:02:18;23.30;55.40
74294;DHT22;64044;59.904;10.738;2023-07-29T11:04:50;23.30;54.80
74294;DHT22;64044;59.904;10.738;2023-07-29T11:15:11;23.50;54.80
74294;DHT22;64044;59.904;10.738;2023-07-29T11:17:54;23.60;54.60
74294;DHT22;64044;59.904;10.738;2023-07-29T11:20:24;23.60;54.40
74294;DHT22;64044;59.904;10.738;2023-07-29T11:22:52;23.70;54.30
74294;DHT22;64044;59.904;10.738;2023-07-29T11:25:18;23.70;54.30
74294;DHT22;64044;59.904;10.738;2023-07-29T11:27:45;23.80;53.90
74294;DHT22;64044;59.904;10.738;2023-07-29T11:30:13;23.80;53.90
74294;DHT22;64044;59.904;10.738;2023-07-29T11:32:41;23.90;53.50
74294;DHT22;64044;59.904;10.738;2023-07-29T11:35:09;24.00;53.50
74294;DHT22;64044;59.904;10.738;2023-07-29T11:37:36;24.10;53.40
74294;DHT22;64044;59.904;10.738;2023-07-29T11:40:03;24.20;53.40
74294;DHT22;64044;59.904;10.738;2023-07-29T11:42:32;24.40;53.20
74294;DHT22;64044;59.904;10.738;2023-07-29T11:44:59;24.60;52.60
74294;DHT22;64044;59.904;10.738;2023-07-29T11:47:24;24.70;52.70
74294;DHT22;64044;59.904;10.738;2023-07-29T11:49:50;24.90;52.40
74294;DHT22;64044;59.904;10.738;2023-07-29T11:52:16;25.10;51.90
74294;DHT22;64044;59.904;10.738;2023-07-29T11:54:46;25.30;51.70
74294;DHT22;64044;59.904;10.738;2023-07-29T11:57:12;25.50;51.30
74294;DHT22;64044;59.904;10.738;2023-07-29T11:59:39;25.70;50.90
74294;DHT22;64044;59.904;10.738;2023-07-29T12:02:09;26.00;51.00
74294;DHT22;64044;59.904;10.738;2023-07-29T12:04:36;26.30;50.10
74294;DHT22;64044;59.904;10.738;2023-07-29T12:07:03;26.50;50.70
74294;DHT22;64044;59.904;10.738;2023-07-29T12:09:29;26.80;50.00
74294;DHT22;64044;59.904;10.738;2023-07-29T12:11:56;27.00;49.60
74294;DHT22;64044;59.904;10.738;2023-07-29T12:14:22;27.40;49.90
74294;DHT22;64044;59.904;10.738;2023-07-29T12:16:51;27.60;49.60
74294;DHT22;64044;59.904;10.738;2023-07-29T12:19:18;27.90;48.80
74294;DHT22;64044;59.904;10.738;2023-07-29T12:21:44;28.20;48.90
74294;DHT22;64044;59.904;10.738;2023-07-29T12:24:11;28.50;48.20
74294;DHT22;64044;59.904;10.738;2023-07-29T12:26:37;28.80;47.60
74294;DHT22;64044;59.904;10.738;2023-07-29T12:29:13;29.10;46.80
74294;DHT22;64044;59.904;10.738;2023-07-29T12:31:39;29.30;45.10
74294;DHT22;64044;59.904;10.738;2023-07-29T12:34:05;29.60;45.80
74294;DHT22;64044;59.904;10.738;2023-07-29T12:36:50;29.80;44.80
74294;DHT22;64044;59.904;10.738;2023-07-29T12:39:23;30.10;42.20
74294;DHT22;64044;59.904;10.738;2023-07-29T12:41:51;30.30;41.40
74294;DHT22;64044;59.904;10.738;2023-07-29T12:44:17;30.40;42.90
74294;DHT22;64044;59.904;10.738;2023-07-29T12:46:43;30.60;42.20
74294;DHT22;64044;59.904;10.738;2023-07-29T12:49:09;30.80;42.30
74294;DHT22;64044;59.904;10.738;2023-07-29T12:51:35;31.10;42.00
74294;DHT22;64044;59.904;10.738;2023-07-29T12:54:03;31.30;41.30
74294;DHT22;64044;59.904;10.738;2023-07-29T12:56:30;31.60;40.60
74294;DHT22;64044;59.904;10.738;2023-07-29T12:58:57;31.90;38.50
74294;DHT22;64044;59.904;10.738;2023-07-29T13:01:24;32.30;38.30
74294;DHT22;64044;59.904;10.738;2023-07-29T13:03:50;32.60;37.80
74294;DHT22;64044;59.904;10.738;2023-07-29T13:06:15;33.00;36.80
74294;DHT22;64044;59.904;10.738;2023-07-29T13:08:42;33.20;36.30
74294;DHT22;64044;59.904;10.738;2023-07-29T13:11:08;33.50;36.30
74294;DHT22;64044;59.904;10.738;2023-07-29T13:13:34;33.70;35.60
74294;DHT22;64044;59.904;10.738;2023-07-29T13:15:59;33.80;35.00
74294;DHT22;64044;59.904;10.738;2023-07-29T13:18:25;33.90;33.60
74294;DHT22;64044;59.904;10.738;2023-07-29T13:20:51;34.00;32.40
74294;DHT22;64044;59.904;10.738;2023-07-29T13:23:17;34.10;32.90
74294;DHT22;64044;59.904;10.738;2023-07-29T13:25:42;34.30;33.60
74294;DHT22;64044;59.904;10.738;2023-07-29T13:28:10;34.40;32.40
74294;DHT22;64044;59.904;10.738;2023-07-29T13:30:36;34.60;32.10
74294;DHT22;64044;59.904;10.738;2023-07-29T13:33:02;34.70;31.90
74294;DHT22;64044;59.904;10.738;2023-07-29T13:35:28;34.90;31.60
74294;DHT22;64044;59.904;10.738;2023-07-29T13:37:53;35.00;31.90
74294;DHT22;64044;59.904;10.738;2023-07-29T13:40:19;35.20;31.20
74294;DHT22;64044;59.904;10.738;2023-07-29T13:42:45;35.40;31.60
74294;DHT22;64044;59.904;10.738;2023-07-29T13:45:10;35.70;31.40
74294;DHT22;64044;59.904;10.738;2023-07-29T13:47:36;35.90;31.40
74294;DHT22;64044;59.904;10.738;2023-07-29T13:50:02;36.20;31.00
74294;DHT22;64044;59.904;10.738;2023-07-29T13:52:29;36.50;30.30
74294;DHT22;64044;59.904;10.738;2023-07-29T13:54:54;36.60;29.90
74294;DHT22;64044;59.904;10.738;2023-07-29T13:57:20;36.80;29.60
74294;DHT22;64044;59.904;10.738;2023-07-29T13:59:46;37.00;28.80
74294;DHT22;64044;59.904;10.738;2023-07-29T14:02:11;37.00;28.70
74294;DHT22;64044;59.904;10.738;2023-07-29T14:04:37;37.00;28.60
74294;DHT22;64044;59.904;10.738;2023-07-29T14:07:03;36.90;28.10
74294;DHT22;64044;59.904;10.738;2023-07-29T14:09:29;36.70;27.80
74294;DHT22;64044;59.904;10.738;2023-07-29T14:11:54;36.50;27.70
74294;DHT22;64044;59.904;10.738;2023-07-29T14:14:20;36.20;27.70
74294;DHT22;64044;59.904;10.738;2023-07-29T14:16:46;35.90;28.10
74294;DHT22;64044;59.904;10.738;2023-07-29T14:19:12;35.60;28.40
74294;DHT22;64044;59.904;10.738;2023-07-29T14:21:38;35.40;29.00
74294;DHT22;64044;59.904;10.738;2023-07-29T14:24:05;35.20;29.30
74294;DHT22;64044;59.904;10.738;2023-07-29T14:26:31;35.20;29.30
74294;DHT22;64044;59.904;10.738;2023-07-29T14:28:57;35.30;29.30
74294;DHT22;64044;59.904;10.738;2023-07-29T14:31:23;35.40;29.30
74294;DHT22;64044;59.904;10.738;2023-07-29T14:33:48;35.50;29.00
74294;DHT22;64044;59.904;10.738;2023-07-29T14:36:15;35.60;28.90
74294;DHT22;64044;59.904;10.738;2023-07-29T14:38:41;35.60;29.00
74294;DHT22;64044;59.904;10.738;2023-07-29T14:41:08;35.70;28.80
74294;DHT22;64044;59.904;10.738;2023-07-29T14:43:34;35.70;28.50
74294;DHT22;64044;59.904;10.738;2023-07-29T14:46:00;35.80;28.40
74294;DHT22;64044;59.904;10.738;2023-07-29T14:48:26;35.90;28.20
74294;DHT22;64044;59.904;10.738;2023-07-29T14:50:51;36.00;28.00
74294;DHT22;64044;59.904;10.738;2023-07-29T14:53:17;36.10;28.00
74294;DHT22;64044;59.904;10.738;2023-07-29T14:55:43;36.20;27.70
74294;DHT22;64044;59.904;10.738;2023-07-29T14:58:09;36.30;27.60
74294;DHT22;64044;59.904;10.738;2023-07-29T15:00:35;36.40;27.30
74294;DHT22;64044;59.904;10.738;2023-07-29T15:03:00;36.50;27.30
74294;DHT22;64044;59.904;10.738;2023-07-29T15:05:26;36.70;26.90
74294;DHT22;64044;59.904;10.738;2023-07-29T15:07:52;36.80;26.80
74294;DHT22;64044;59.904;10.738;2023-07-29T15:10:17;36.90;26.60
74294;DHT22;64044;59.904;10.738;2023-07-29T15:12:44;37.00;26.40
74294;DHT22;64044;59.904;10.738;2023-07-29T15:15:11;37.10;26.20
74294;DHT22;64044;59.904;10.738;2023-07-29T15:17:37;37.20;26.10
74294;DHT22;64044;59.904;10.738;2023-07-29T15:20:03;37.30;25.90
74294;DHT22;64044;59.904;10.738;2023-07-29T15:22:30;37.40;26.10
74294;DHT22;64044;59.904;10.738;2023-07-29T15:25:00;37.50;25.80
74294;DHT22;64044;59.904;10.738;2023-07-29T15:27:30;37.50;25.80
74294;DHT22;64044;59.904;10.738;2023-07-29T15:29:56;37.50;25.30
74294;DHT22;64044;59.904;10.738;2023-07-29T15:32:22;37.50;24.90